sensor_id;sensor_type;location;lat;lon;timestamp;pressure;altitude;pressure_sealevel;temperature;humidity
76808;BME280;65758;45.458;11.062;2023-12-04T00:00:36;101899.77;;;5.42;64.80
76808;BME280;65758;45.458;11.062;2023-12-04T00:03:03;101900.59;;;5.48;64.97
76808;BME280;65758;45.458;11.062;2023-12-04T00:05:30;101900.88;;;5.52;64.22
76808;BME280;65758;45.458;11.062;2023-12-04T00:07:57;101901.38;;;5.52;64.13
76808;BME280;65758;45.458;11.062;2023-12-04T00:10:24;101899.52;;;5.51;63.86
76808;BME280;65758;45.458;11.062;2023-12-04T00:12:51;101898.23;;;5.48;63.46
76808;BME280;65758;45.458;11.062;2023-12-04T00:15:19;101893.36;;;5.46;63.53
76808;BME280;65758;45.458;11.062;2023-12-04T00:17:46;101894.65;;;5.46;63.63
76808;BME280;65758;45.458;11.062;2023-12-04T00:20:14;101893.73;;;5.44;63.45
76808;BME280;65758;45.458;11.062;2023-12-04T00:22:41;101891.68;;;5.42;63.88
76808;BME280;65758;45.458;11.062;2023-12-04T00:25:08;101897.47;;;5.43;63.85
76808;BME280;65758;45.458;11.062;2023-12-04T00:27:35;101897.25;;;5.40;63.87
76808;BME280;65758;45.458;11.062;2023-12-04T00:30:03;101900.08;;;5.36;63.37
76808;BME280;65758;45.458;11.062;2023-12-04T00:32:33;101896.23;;;5.29;63.35
76808;BME280;65758;45.458;11.062;2023-12-04T00:35:01;101893.00;;;5.26;63.34
76808;BME280;65758;45.458;11.062;2023-12-04T00:37:28;101893.46;;;5.23;63.71
76808;BME280;65758;45.458;11.062;2023-12-04T00:39:56;101891.08;;;5.20;63.48
76808;BME280;65758;45.458;11.062;2023-12-04T00:42:23;101890.73;;;5.18;63.47
76808;BME280;65758;45.458;11.062;2023-12-04T00:44:50;101885.91;;;5.16;64.01
76808;BME280;65758;45.458;11.062;2023-12-04T00:47:17;101878.21;;;5.14;63.09
76808;BME280;65758;45.458;11.062;2023-12-04T00:49:44;101872.62;;;5.04;62.73
76808;BME280;65758;45.458;11.062;2023-12-04T00:52:11;101871.62;;;4.98;62.96
76808;BME280;65758;45.458;11.062;2023-12-04T00:54:41;101874.67;;;4.98;63.42
76808;BME280;65758;45.458;11.062;2023-12-04T00:57:08;101874.71;;;5.00;63.36
76808;BME280;65758;45.458;11.062;2023-12-04T00:59:35;101868.00;;;5.01;63.15
76808;BME280;65758;45.458;11.062;2023-12-04T01:02:02;101863.00;;;5.04;63.51
76808;BME280;65758;45.458;11.062;2023-12-04T01:04:30;101863.80;;;5.02;63.44
76808;BME280;65758;45.458;11.062;2023-12-04T01:06:57;101863.56;;;4.95;63.45
76808;BME280;65758;45.458;11.062;2023-12-04T01:09:24;101861.55;;;4.91;64.00
76808;BME280;65758;45.458;11.062;2023-12-04T01:11:54;101860.07;;;4.88;64.04
76808;BME280;65758;45.458;11.062;2023-12-04T01:14:21;101860.53;;;4.83;64.06
76808;BME280;65758;45.458;11.062;2023-12-04T01:16:48;101857.80;;;4.78;63.87
76808;BME280;65758;45.458;11.062;2023-12-04T01:19:15;101857.36;;;4.72;63.87
76808;BME280;65758;45.458;11.062;2023-12-04T01:21:42;101852.83;;;4.67;64.07
76808;BME280;65758;45.458;11.062;2023-12-04T01:24:08;101858.45;;;4.63;64.09
76808;BME280;65758;45.458;11.062;2023-12-04T01:26:35;101858.71;;;4.59;64.30
76808;BME280;65758;45.458;11.062;2023-12-04T01:29:02;101862.20;;;4.61;65.29
76808;BME280;65758;45.458;11.062;2023-12-04T01:31:29;101862.59;;;4.64;64.67
76808;BME280;65758;45.458;11.062;2023-12-04T01:33:56;101860.52;;;4.63;64.79
76808;BME280;65758;45.458;11.062;2023-12-04T01:36:23;101863.44;;;4.63;64.86
76808;BME280;65758;45.458;11.062;2023-12-04T01:38:50;101860.44;;;4.60;64.92
76808;BME280;65758;45.458;11.062;2023-12-04T01:41:17;101859.67;;;4.62;64.86
76808;BME280;65758;45.458;11.062;2023-12-04T01:43:44;101859.44;;;4.63;65.01
76808;BME280;65758;45.458;11.062;2023-12-04T01:46:11;101856.87;;;4.63;64.90
76808;BME280;65758;45.458;11.062;2023-12-04T01:48:39;101858.63;;;4.62;64.75
76808;BME280;65758;45.458;11.062;2023-12-04T01:51:09;101857.69;;;4.59;65.17
76808;BME280;65758;45.458;11.062;2023-12-04T01:53:38;101854.09;;;4.60;64.54
76808;BME280;65758;45.458;11.062;2023-12-04T01:56:06;101852.92;;;4.61;64.20
76808;BME280;65758;45.458;11.062;2023-12-04T01:58:34;101854.17;;;4.61;64.62
76808;BME280;65758;45.458;11.062;2023-12-04T02:01:01;101855.01;;;4.60;64.77
76808;BME280;65758;45.458;11.062;2023-12-04T02:03:29;101851.21;;;4.60;64.66
76808;BME280;65758;45.458;11.062;2023-12-04T02:05:59;101853.42;;;4.60;64.23
76808;BME280;65758;45.458;11.062;2023-12-04T02:08:27;101839.16;;;4.58;64.56
76808;BME280;65758;45.458;11.062;2023-12-04T02:10:55;101838.08;;;4.53;64.70
76808;BME280;65758;45.458;11.062;2023-12-04T02:13:22;101834.75;;;4.47;64.59
76808;BME280;65758;45.458;11.062;2023-12-04T02:15:53;101837.27;;;4.37;64.68
76808;BME280;65758;45.458;11.062;2023-12-04T02:18:20;101828.35;;;4.22;64.78
76808;BME280;65758;45.458;11.062;2023-12-04T02:20:48;101828.52;;;4.12;65.21
76808;BME280;65758;45.458;11.062;2023-12-04T02:23:15;101831.80;;;4.03;65.02
76808;BME280;65758;45.458;11.062;2023-12-04T02:25:42;101826.91;;;3.96;65.67
76808;BME280;65758;45.458;11.062;2023-12-04T02:28:12;101826.65;;;3.99;65.82
76808;BME280;65758;45.458;11.062;2023-12-04T02:30:43;101828.08;;;4.04;65.50
76808;BME280;65758;45.458;11.062;2023-12-04T02:33:11;101835.64;;;4.09;65.56
76808;BME280;65758;45.458;11.062;2023-12-04T02:35:41;101837.13;;;4.12;65.15
76808;BME280;65758;45.458;11.062;2023-12-04T02:38:09;101840.29;;;4.13;65.18
76808;BME280;65758;45.458;11.062;2023-12-04T02:40:37;101845.48;;;4.12;64.90
76808;BME280;65758;45.458;11.062;2023-12-04T02:43:04;101842.77;;;4.10;65.47
76808;BME280;65758;45.458;11.062;2023-12-04T02:45:31;101841.74;;;4.11;65.54
76808;BME280;65758;45.458;11.062;2023-12-04T02:47:58;101840.60;;;4.12;65.58
76808;BME280;65758;45.458;11.062;2023-12-04T02:50:25;101840.55;;;4.12;65.28
76808;BME280;65758;45.458;11.062;2023-12-04T02:52:52;101843.63;;;4.12;65.19
76808;BME280;65758;45.458;11.062;2023-12-04T02:55:19;101844.05;;;4.10;64.83
76808;BME280;65758;45.458;11.062;2023-12-04T02:57:45;101843.92;;;4.06;64.75
76808;BME280;65758;45.458;11.062;2023-12-04T03:00:13;101848.32;;;4.04;64.67
76808;BME280;65758;45.458;11.062;2023-12-04T03:02:39;101852.41;;;4.01;64.89
76808;BME280;65758;45.458;11.062;2023-12-04T03:05:06;101856.63;;;3.98;64.98
76808;BME280;65758;45.458;11.062;2023-12-04T03:07:33;101859.12;;;3.95;65.07
76808;BME280;65758;45.458;11.062;2023-12-04T03:10:01;101859.92;;;3.91;65.10
76808;BME280;65758;45.458;11.062;2023-12-04T03:12:28;101854.92;;;3.89;65.02
76808;BME280;65758;45.458;11.062;2023-12-04T03:14:55;101854.17;;;3.85;65.20
76808;BME280;65758;45.458;11.062;2023-12-04T03:17:22;101854.58;;;3.79;65.25
76808;BME280;65758;45.458;11.062;2023-12-04T03:19:48;101849.17;;;3.76;65.32
76808;BME280;65758;45.458;11.062;2023-12-04T03:22:17;101845.35;;;3.74;65.20
76808;BME280;65758;45.458;11.062;2023-12-04T03:24:44;101844.77;;;3.73;65.25
76808;BME280;65758;45.458;11.062;2023-12-04T03:27:11;101843.73;;;3.71;65.38
76808;BME280;65758;45.458;11.062;2023-12-04T03:29:38;101841.81;;;3.72;65.39
76808;BME280;65758;45.458;11.062;2023-12-04T03:32:05;101832.73;;;3.72;65.63
76808;BME280;65758;45.458;11.062;2023-12-04T03:34:32;101826.77;;;3.72;65.89
76808;BME280;65758;45.458;11.062;2023-12-04T03:36:59;101827.28;;;3.73;65.62
76808;BME280;65758;45.458;11.062;2023-12-04T03:39:26;101824.49;;;3.74;65.44
76808;BME280;65758;45.458;11.062;2023-12-04T03:41:53;101822.07;;;3.74;65.71
76808;BME280;65758;45.458;11.062;2023-12-04T03:44:20;101820.75;;;3.77;65.69
76808;BME280;65758;45.458;11.062;2023-12-04T03:46:46;101817.05;;;3.78;65.32
76808;BME280;65758;45.458;11.062;2023-12-04T03:49:13;101812.56;;;3.75;65.31
76808;BME280;65758;45.458;11.062;2023-12-04T03:51:40;101805.76;;;3.72;65.21
76808;BME280;65758;45.458;11.062;2023-12-04T03:54:07;101806.44;;;3.69;65.27
76808;BME280;65758;45.458;11.062;2023-12-04T03:56:34;101809.18;;;3.67;65.10
76808;BME280;65758;45.458;11.062;2023-12-04T03:59:01;101810.11;;;3.63;65.13
76808;BME280;65758;45.458;11.062;2023-12-04T04:01:28;101807.96;;;3.59;65.27
76808;BME280;65758;45.458;11.062;2023-12-04T04:03:56;101804.71;;;3.56;65.17
76808;BME280;65758;45.458;11.062;2023-12-04T04:06:23;101805.63;;;3.54;65.49
76808;BME280;65758;45.458;11.062;2023-12-04T04:08:50;101805.73;;;3.51;65.50
76808;BME280;65758;45.458;11.062;2023-12-04T04:11:19;101805.31;;;3.48;65.77
76808;BME280;65758;45.458;11.062;2023-12-04T04:13:46;101805.90;;;3.46;65.90
76808;BME280;65758;45.458;11.062;2023-12-04T04:16:15;101806.53;;;3.45;65.75
76808;BME280;65758;45.458;11.062;2023-12-04T04:18:43;101802.33;;;3.44;65.69
76808;BME280;65758;45.458;11.062;2023-12-04T04:21:10;101803.33;;;3.46;65.77
76808;BME280;65758;45.458;11.062;2023-12-04T04:23:37;101806.56;;;3.50;65.76
76808;BME280;65758;45.458;11.062;2023-12-04T04:26:03;101798.45;;;3.52;65.77
76808;BME280;65758;45.458;11.062;2023-12-04T04:28:30;101802.86;;;3.54;65.74
76808;BME280;65758;45.458;11.062;2023-12-04T04:30:57;101809.13;;;3.55;65.74
76808;BME280;65758;45.458;11.062;2023-12-04T04:33:24;101806.34;;;3.54;65.73
76808;BME280;65758;45.458;11.062;2023-12-04T04:35:51;101802.58;;;3.53;65.88
76808;BME280;65758;45.458;11.062;2023-12-04T04:38:18;101801.94;;;3.53;66.00
76808;BME280;65758;45.458;11.062;2023-12-04T04:40:45;101806.13;;;3.53;65.61
76808;BME280;65758;45.458;11.062;2023-12-04T04:43:12;101802.46;;;3.51;65.72
76808;BME280;65758;45.458;11.062;2023-12-04T04:45:39;101803.07;;;3.50;66.25
76808;BME280;65758;45.458;11.062;2023-12-04T04:48:06;101801.70;;;3.50;66.38
76808;BME280;65758;45.458;11.062;2023-12-04T04:50:33;101799.70;;;3.50;65.98
76808;BME280;65758;45.458;11.062;2023-12-04T04:53:00;101794.44;;;3.50;65.92
76808;BME280;65758;45.458;11.062;2023-12-04T04:55:27;101797.73;;;3.48;66.27
76808;BME280;65758;45.458;11.062;2023-12-04T04:58:13;101794.09;;;3.48;66.59
76808;BME280;65758;45.458;11.062;2023-12-04T05:00:40;101791.14;;;3.47;66.28
76808;BME280;65758;45.458;11.062;2023-12-04T05:03:08;101789.00;;;3.44;66.12
76808;BME280;65758;45.458;11.062;2023-12-04T05:05:34;101790.39;;;3.41;66.22
76808;BME280;65758;45.458;11.062;2023-12-04T05:08:01;101782.55;;;3.37;66.25
76808;BME280;65758;45.458;11.062;2023-12-04T05:10:28;101779.68;;;3.37;66.35
76808;BME280;65758;45.458;11.062;2023-12-04T05:12:56;101775.99;;;3.40;66.65
76808;BME280;65758;45.458;11.062;2023-12-04T05:15:22;101775.16;;;3.41;66.67
76808;BME280;65758;45.458;11.062;2023-12-04T05:17:49;101773.10;;;3.42;66.61
76808;BME280;65758;45.458;11.062;2023-12-04T05:20:17;101764.70;;;3.45;66.84
76808;BME280;65758;45.458;11.062;2023-12-04T05:22:44;101760.98;;;3.46;66.62
76808;BME280;65758;45.458;11.062;2023-12-04T05:25:11;101761.63;;;3.45;66.34
76808;BME280;65758;45.458;11.062;2023-12-04T05:27:38;101757.79;;;3.44;66.40
76808;BME280;65758;45.458;11.062;2023-12-04T05:30:05;101757.39;;;3.40;66.58
76808;BME280;65758;45.458;11.062;2023-12-04T05:32:32;101756.30;;;3.39;66.43
76808;BME280;65758;45.458;11.062;2023-12-04T05:34:59;101754.79;;;3.36;66.33
76808;BME280;65758;45.458;11.062;2023-12-04T05:37:26;101750.02;;;3.33;66.67
76808;BME280;65758;45.458;11.062;2023-12-04T05:39:53;101752.40;;;3.31;66.42
76808;BME280;65758;45.458;11.062;2023-12-04T05:42:20;101753.88;;;3.31;66.70
76808;BME280;65758;45.458;11.062;2023-12-04T05:44:47;101756.05;;;3.29;66.67
76808;BME280;65758;45.458;11.062;2023-12-04T05:47:14;101757.06;;;3.28;66.74
76808;BME280;65758;45.458;11.062;2023-12-04T05:49:41;101761.62;;;3.27;66.95
76808;BME280;65758;45.458;11.062;2023-12-04T05:52:08;101761.45;;;3.29;66.79
76808;BME280;65758;45.458;11.062;2023-12-04T05:54:35;101763.30;;;3.32;66.75
76808;BME280;65758;45.458;11.062;2023-12-04T05:57:03;101762.00;;;3.34;66.89
76808;BME280;65758;45.458;11.062;2023-12-04T05:59:30;101772.98;;;3.38;66.96
76808;BME280;65758;45.458;11.062;2023-12-04T06:01:57;101778.41;;;3.43;66.97
76808;BME280;65758;45.458;11.062;2023-12-04T06:04:23;101778.77;;;3.47;67.08
76808;BME280;65758;45.458;11.062;2023-12-04T06:06:50;101778.67;;;3.49;67.15
76808;BME280;65758;45.458;11.062;2023-12-04T06:09:17;101785.02;;;3.51;67.74
76808;BME280;65758;45.458;11.062;2023-12-04T06:11:44;101787.05;;;3.52;67.49
76808;BME280;65758;45.458;11.062;2023-12-04T06:14:13;101791.89;;;3.52;67.40
76808;BME280;65758;45.458;11.062;2023-12-04T06:16:40;101789.49;;;3.53;67.30
76808;BME280;65758;45.458;11.062;2023-12-04T06:19:07;101789.36;;;3.54;67.12
76808;BME280;65758;45.458;11.062;2023-12-04T06:21:34;101785.00;;;3.54;67.23
76808;BME280;65758;45.458;11.062;2023-12-04T06:24:01;101783.33;;;3.55;68.10
76808;BME280;65758;45.458;11.062;2023-12-04T06:26:32;101784.58;;;3.58;67.63
76808;BME280;65758;45.458;11.062;2023-12-04T06:29:00;101790.61;;;3.59;67.26
76808;BME280;65758;45.458;11.062;2023-12-04T06:31:28;101789.94;;;3.61;67.36
76808;BME280;65758;45.458;11.062;2023-12-04T06:33:56;101792.55;;;3.62;67.11
76808;BME280;65758;45.458;11.062;2023-12-04T06:36:24;101790.99;;;3.66;67.25
76808;BME280;65758;45.458;11.062;2023-12-04T06:38:52;101791.15;;;3.72;67.14
76808;BME280;65758;45.458;11.062;2023-12-04T06:41:20;101792.40;;;3.75;66.94
76808;BME280;65758;45.458;11.062;2023-12-04T06:43:48;101796.83;;;3.79;66.84
76808;BME280;65758;45.458;11.062;2023-12-04T06:46:20;101799.27;;;3.84;66.70
76808;BME280;65758;45.458;11.062;2023-12-04T06:48:48;101801.59;;;3.88;66.94
76808;BME280;65758;45.458;11.062;2023-12-04T06:51:17;101804.43;;;3.92;67.08
76808;BME280;65758;45.458;11.062;2023-12-04T06:53:43;101809.41;;;3.93;66.81
76808;BME280;65758;45.458;11.062;2023-12-04T06:56:10;101810.21;;;3.90;67.06
76808;BME280;65758;45.458;11.062;2023-12-04T06:58:37;101808.66;;;3.84;66.83
76808;BME280;65758;45.458;11.062;2023-12-04T07:01:04;101807.84;;;3.76;67.07
76808;BME280;65758;45.458;11.062;2023-12-04T07:03:30;101805.68;;;3.70;67.14
76808;BME280;65758;45.458;11.062;2023-12-04T07:05:57;101797.55;;;3.65;67.35
76808;BME280;65758;45.458;11.062;2023-12-04T07:08:25;101802.86;;;3.61;67.73
76808;BME280;65758;45.458;11.062;2023-12-04T07:10:51;101800.73;;;3.59;67.82
76808;BME280;65758;45.458;11.062;2023-12-04T07:13:18;101790.73;;;3.58;67.93
76808;BME280;65758;45.458;11.062;2023-12-04T07:15:46;101784.66;;;3.59;68.34
76808;BME280;65758;45.458;11.062;2023-12-04T07:18:13;101781.82;;;3.64;68.28
76808;BME280;65758;45.458;11.062;2023-12-04T07:20:40;101786.39;;;3.70;68.37
76808;BME280;65758;45.458;11.062;2023-12-04T07:23:06;101788.18;;;3.76;68.07
76808;BME280;65758;45.458;11.062;2023-12-04T07:25:34;101793.25;;;3.81;67.95
76808;BME280;65758;45.458;11.062;2023-12-04T07:28:01;101795.06;;;3.83;67.92
76808;BME280;65758;45.458;11.062;2023-12-04T07:30:28;101799.52;;;3.85;67.86
76808;BME280;65758;45.458;11.062;2023-12-04T07:32:55;101796.79;;;3.87;68.16
76808;BME280;65758;45.458;11.062;2023-12-04T07:35:22;101804.76;;;3.94;68.58
76808;BME280;65758;45.458;11.062;2023-12-04T07:37:49;101807.37;;;4.00;68.09
76808;BME280;65758;45.458;11.062;2023-12-04T07:40:16;101813.35;;;4.02;68.08
76808;BME280;65758;45.458;11.062;2023-12-04T07:42:43;101815.91;;;4.05;68.15
76808;BME280;65758;45.458;11.062;2023-12-04T07:45:10;101815.85;;;4.05;67.80
76808;BME280;65758;45.458;11.062;2023-12-04T07:47:37;101816.40;;;4.03;67.66
76808;BME280;65758;45.458;11.062;2023-12-04T07:50:05;101812.41;;;4.02;67.72
76808;BME280;65758;45.458;11.062;2023-12-04T07:52:32;101812.07;;;4.03;67.79
76808;BME280;65758;45.458;11.062;2023-12-04T07:54:59;101803.14;;;4.04;67.84
76808;BME280;65758;45.458;11.062;2023-12-04T07:57:26;101800.71;;;4.05;68.08
76808;BME280;65758;45.458;11.062;2023-12-04T07:59:52;101800.69;;;4.07;67.95
76808;BME280;65758;45.458;11.062;2023-12-04T08:02:19;101802.55;;;4.10;68.06
76808;BME280;65758;45.458;11.062;2023-12-04T08:04:46;101800.98;;;4.16;68.54
76808;BME280;65758;45.458;11.062;2023-12-04T08:07:13;101801.38;;;4.24;68.28
76808;BME280;65758;45.458;11.062;2023-12-04T08:09:41;101804.60;;;4.30;68.23
76808;BME280;65758;45.458;11.062;2023-12-04T08:12:08;101808.14;;;4.32;67.91
76808;BME280;65758;45.458;11.062;2023-12-04T08:14:35;101810.80;;;4.32;67.67
76808;BME280;65758;45.458;11.062;2023-12-04T08:17:02;101809.56;;;4.34;67.47
76808;BME280;65758;45.458;11.062;2023-12-04T08:19:29;101805.45;;;4.35;67.30
76808;BME280;65758;45.458;11.062;2023-12-04T08:21:56;101806.91;;;4.37;67.11
76808;BME280;65758;45.458;11.062;2023-12-04T08:24:23;101807.48;;;4.38;66.89
76808;BME280;65758;45.458;11.062;2023-12-04T08:26:50;101809.71;;;4.40;66.83
76808;BME280;65758;45.458;11.062;2023-12-04T08:29:17;101808.13;;;4.41;66.73
76808;BME280;65758;45.458;11.062;2023-12-04T08:31:44;101804.66;;;4.41;66.71
76808;BME280;65758;45.458;11.062;2023-12-04T08:34:11;101804.48;;;4.43;66.57
76808;BME280;65758;45.458;11.062;2023-12-04T08:36:38;101804.83;;;4.45;66.35
76808;BME280;65758;45.458;11.062;2023-12-04T08:39:12;101806.25;;;4.46;65.94
76808;BME280;65758;45.458;11.062;2023-12-04T08:41:39;101805.79;;;4.47;66.09
76808;BME280;65758;45.458;11.062;2023-12-04T08:44:16;101794.80;;;4.51;65.85
76808;BME280;65758;45.458;11.062;2023-12-04T08:46:44;101790.58;;;4.54;65.74
76808;BME280;65758;45.458;11.062;2023-12-04T08:49:11;101802.66;;;4.58;65.50
76808;BME280;65758;45.458;11.062;2023-12-04T08:51:38;101805.27;;;4.62;65.69
76808;BME280;65758;45.458;11.062;2023-12-04T08:54:06;101797.29;;;4.69;66.06
76808;BME280;65758;45.458;11.062;2023-12-04T08:56:36;101787.16;;;4.76;66.04
76808;BME280;65758;45.458;11.062;2023-12-04T08:59:04;101772.79;;;4.80;66.09
76808;BME280;65758;45.458;11.062;2023-12-04T09:01:30;101771.09;;;4.86;66.06
76808;BME280;65758;45.458;11.062;2023-12-04T09:03:58;101768.55;;;4.88;65.83
76808;BME280;65758;45.458;11.062;2023-12-04T09:06:26;101766.09;;;4.91;65.63
76808;BME280;65758;45.458;11.062;2023-12-04T09:09:13;101754.01;;;4.94;65.73
76808;BME280;65758;45.458;11.062;2023-12-04T09:11:42;101754.81;;;4.95;65.60
76808;BME280;65758;45.458;11.062;2023-12-04T09:14:10;101758.16;;;4.95;65.84
76808;BME280;65758;45.458;11.062;2023-12-04T09:16:38;101762.42;;;4.98;66.01
76808;BME280;65758;45.458;11.062;2023-12-04T09:19:05;101765.02;;;5.04;66.29
76808;BME280;65758;45.458;11.062;2023-12-04T09:21:32;101764.59;;;5.11;65.97
76808;BME280;65758;45.458;11.062;2023-12-04T09:23:59;101763.96;;;5.20;65.78
76808;BME280;65758;45.458;11.062;2023-12-04T09:26:26;101764.23;;;5.29;65.28
76808;BME280;65758;45.458;11.062;2023-12-04T09:28:53;101764.87;;;5.38;65.08
76808;BME280;65758;45.458;11.062;2023-12-04T09:31:20;101758.06;;;5.46;64.99
76808;BME280;65758;45.458;11.062;2023-12-04T09:33:47;101749.34;;;5.52;64.81
76808;BME280;65758;45.458;11.062;2023-12-04T09:36:14;101748.36;;;5.59;64.88
76808;BME280;65758;45.458;11.062;2023-12-04T09:38:42;101743.79;;;5.66;64.07
76808;BME280;65758;45.458;11.062;2023-12-04T09:41:10;101743.58;;;5.71;63.81
76808;BME280;65758;45.458;11.062;2023-12-04T09:43:38;101747.95;;;5.76;63.27
76808;BME280;65758;45.458;11.062;2023-12-04T09:46:07;101747.52;;;5.78;63.20
76808;BME280;65758;45.458;11.062;2023-12-04T09:48:36;101743.23;;;5.81;62.82
76808;BME280;65758;45.458;11.062;2023-12-04T09:51:05;101744.45;;;5.85;63.13
76808;BME280;65758;45.458;11.062;2023-12-04T09:53:33;101747.60;;;5.89;64.34
76808;BME280;65758;45.458;11.062;2023-12-04T09:56:03;101743.24;;;5.94;64.63
76808;BME280;65758;45.458;11.062;2023-12-04T09:58:31;101735.64;;;5.97;65.00
76808;BME280;65758;45.458;11.062;2023-12-04T10:01:01;101729.28;;;5.99;65.28
76808;BME280;65758;45.458;11.062;2023-12-04T10:03:28;101736.69;;;6.01;65.12
76808;BME280;65758;45.458;11.062;2023-12-04T10:05:57;101732.66;;;6.03;65.01
76808;BME280;65758;45.458;11.062;2023-12-04T10:08:24;101730.05;;;6.03;64.79
76808;BME280;65758;45.458;11.062;2023-12-04T10:10:51;101720.14;;;6.01;64.90
76808;BME280;65758;45.458;11.062;2023-12-04T10:13:18;101713.63;;;5.97;64.73
76808;BME280;65758;45.458;11.062;2023-12-04T10:16:05;101702.77;;;5.88;64.89
76808;BME280;65758;45.458;11.062;2023-12-04T10:18:32;101695.36;;;5.84;65.03
76808;BME280;65758;45.458;11.062;2023-12-04T10:21:00;101676.96;;;5.79;64.87
76808;BME280;65758;45.458;11.062;2023-12-04T10:23:40;101656.80;;;5.75;65.11
76808;BME280;65758;45.458;11.062;2023-12-04T10:26:07;101636.48;;;5.71;65.06
76808;BME280;65758;45.458;11.062;2023-12-04T10:28:35;101622.58;;;5.69;65.10
76808;BME280;65758;45.458;11.062;2023-12-04T10:31:02;101612.77;;;5.69;65.56
76808;BME280;65758;45.458;11.062;2023-12-04T10:33:29;101611.84;;;5.72;65.07
76808;BME280;65758;45.458;11.062;2023-12-04T10:35:57;101609.17;;;5.77;65.19
76808;BME280;65758;45.458;11.062;2023-12-04T10:38:25;101615.27;;;5.82;65.17
76808;BME280;65758;45.458;11.062;2023-12-04T10:40:53;101624.66;;;5.88;65.65
76808;BME280;65758;45.458;11.062;2023-12-04T10:43:23;101628.92;;;5.91;65.48
76808;BME280;65758;45.458;11.062;2023-12-04T10:45:51;101621.20;;;5.96;65.87
76808;BME280;65758;45.458;11.062;2023-12-04T10:48:18;101621.50;;;6.02;65.40
76808;BME280;65758;45.458;11.062;2023-12-04T10:53:32;101619.02;;;6.10;64.55
76808;BME280;65758;45.458;11.062;2023-12-04T10:56:01;101621.40;;;6.14;64.35
76808;BME280;65758;45.458;11.062;2023-12-04T10:58:29;101622.34;;;6.18;64.23
76808;BME280;65758;45.458;11.062;2023-12-04T11:00:57;101623.73;;;6.23;64.11
76808;BME280;65758;45.458;11.062;2023-12-04T11:03:44;101618.73;;;6.26;64.16
76808;BME280;65758;45.458;11.062;2023-12-04T11:06:13;101614.90;;;6.29;63.56
76808;BME280;65758;45.458;11.062;2023-12-04T11:08:42;101617.17;;;6.32;63.93
76808;BME280;65758;45.458;11.062;2023-12-04T11:11:12;101606.09;;;6.33;63.67
76808;BME280;65758;45.458;11.062;2023-12-04T11:13:42;101603.65;;;6.36;63.80
76808;BME280;65758;45.458;11.062;2023-12-04T11:16:20;101602.02;;;6.39;64.03
76808;BME280;65758;45.458;11.062;2023-12-04T11:18:56;101590.52;;;6.43;63.85
76808;BME280;65758;45.458;11.062;2023-12-04T11:21:32;101583.61;;;6.49;63.16
76808;BME280;65758;45.458;11.062;2023-12-04T11:23:59;101574.55;;;6.53;63.07
76808;BME280;65758;45.458;11.062;2023-12-04T11:26:26;101572.46;;;6.60;63.47
76808;BME280;65758;45.458;11.062;2023-12-04T11:28:54;101574.84;;;6.66;63.41
76808;BME280;65758;45.458;11.062;2023-12-04T11:31:22;101567.40;;;6.69;63.22
76808;BME280;65758;45.458;11.062;2023-12-04T11:33:49;101563.66;;;6.70;62.71
76808;BME280;65758;45.458;11.062;2023-12-04T11:36:16;101564.84;;;6.74;63.29
76808;BME280;65758;45.458;11.062;2023-12-04T11:38:45;101562.13;;;6.79;63.06
76808;BME280;65758;45.458;11.062;2023-12-04T11:41:21;101555.73;;;6.84;62.89
76808;BME280;65758;45.458;11.062;2023-12-04T11:43:56;101549.73;;;6.88;62.70
76808;BME280;65758;45.458;11.062;2023-12-04T11:46:25;101546.30;;;6.93;62.20
76808;BME280;65758;45.458;11.062;2023-12-04T11:48:57;101548.67;;;6.97;62.42
76808;BME280;65758;45.458;11.062;2023-12-04T11:54:15;101551.58;;;7.04;62.24
76808;BME280;65758;45.458;11.062;2023-12-04T11:59:27;101549.16;;;7.08;61.61
76808;BME280;65758;45.458;11.062;2023-12-04T12:01:55;101539.04;;;7.09;62.18
76808;BME280;65758;45.458;11.062;2023-12-04T12:04:25;101535.58;;;7.12;61.74
76808;BME280;65758;45.458;11.062;2023-12-04T12:06:58;101527.08;;;7.12;61.65
76808;BME280;65758;45.458;11.062;2023-12-04T12:09:25;101519.02;;;7.14;61.95
76808;BME280;65758;45.458;11.062;2023-12-04T12:11:53;101516.13;;;7.15;61.50
76808;BME280;65758;45.458;11.062;2023-12-04T12:14:21;101512.05;;;7.17;61.84
76808;BME280;65758;45.458;11.062;2023-12-04T12:16:48;101507.08;;;7.19;61.88
76808;BME280;65758;45.458;11.062;2023-12-04T12:19:15;101503.23;;;7.21;61.52
76808;BME280;65758;45.458;11.062;2023-12-04T12:21:44;101501.05;;;7.21;60.91
76808;BME280;65758;45.458;11.062;2023-12-04T12:24:11;101496.31;;;7.21;61.10
76808;BME280;65758;45.458;11.062;2023-12-04T12:26:39;101497.75;;;7.22;60.76
76808;BME280;65758;45.458;11.062;2023-12-04T12:29:08;101496.45;;;7.22;61.55
76808;BME280;65758;45.458;11.062;2023-12-04T12:31:36;101498.63;;;7.22;60.86
76808;BME280;65758;45.458;11.062;2023-12-04T12:34:02;101501.92;;;7.20;60.65
76808;BME280;65758;45.458;11.062;2023-12-04T12:36:30;101504.15;;;7.18;60.93
76808;BME280;65758;45.458;11.062;2023-12-04T12:39:00;101499.70;;;7.18;61.54
76808;BME280;65758;45.458;11.062;2023-12-04T12:41:31;101496.05;;;7.18;61.31
76808;BME280;65758;45.458;11.062;2023-12-04T12:43:58;101486.59;;;7.15;60.63
76808;BME280;65758;45.458;11.062;2023-12-04T12:46:27;101481.09;;;7.11;61.02
76808;BME280;65758;45.458;11.062;2023-12-04T12:48:54;101478.52;;;7.10;61.39
76808;BME280;65758;45.458;11.062;2023-12-04T12:51:23;101473.38;;;7.10;61.20
76808;BME280;65758;45.458;11.062;2023-12-04T12:53:50;101465.66;;;7.08;60.92
76808;BME280;65758;45.458;11.062;2023-12-04T12:56:19;101460.65;;;7.08;60.95
76808;BME280;65758;45.458;11.062;2023-12-04T12:58:46;101457.70;;;7.06;60.81
76808;BME280;65758;45.458;11.062;2023-12-04T13:01:13;101456.05;;;7.05;60.49